• Join FlightAware (Why Join?)
  • Login
  • US Flag 
07:29PM EDT


 

Airport Tracker/Info


-or-


 

Live Flight TrackerFlight Track Log ✈ JBU917 ✈ 16-May-2013 ✈ KJFK - KORD

Flight Track Log - Related Links

Times and Time Zones

All times are in EDT time to prevent confusion due to time zone crossing. See the JBU917 flight status page for this flight to view local times or setup timezone preferences in your user account.

Time Position Orientation Groundspeed Altitude Reporting Facility
EDT Latitude Longitude Course Direction KTS MPH feet Rate Location/Type
08:53PM 40.6000 -73.8000 306° West 152 175 1,500  Level New York TRACON
08:54PM 40.5500 -73.7667 153° Southeast 228 262 3,200 1,320 Climbing New York TRACON
08:55PM 40.7852 -74.0537 304° West  Level FlightAware Approximate
08:55PM 40.5833 -73.6833 62° Northeast 289 333 4,200  Level New York TRACON
08:56PM 40.8360 -74.1551 304° West  Level FlightAware Approximate
08:56PM 40.6500 -73.6333 30° Northeast 278 320 7,500  Level New York TRACON
08:57PM 40.8880 -74.2556 306° West  Level FlightAware Approximate
08:57PM 40.7167 -73.5833 30° Northeast 295 339 10,400  Level New York TRACON
08:58PM 40.9418 -74.3544 306° West  Level FlightAware Approximate
08:58PM 40.7833 -73.5667 11° North 287 330 13,300  Level New York TRACON
08:59PM 40.8667 -73.6000 343° North 317 365 14,400 1,380 Climbing New York TRACON
09:01PM 40.9883 -73.8417 304° West 342 394 18,100 1,680 Climbing New York Center
09:02PM 41.0103 -73.9608 284° West 331 381 20,200 1,920 Climbing New York Center
09:03PM 41.0339 -74.0858 284° West 342 394 22,000 1,860 Climbing New York Center
09:04PM 41.0511 -74.2131 280° West 348 400 23,900 1,680 Climbing New York Center
09:05PM 41.0744 -74.3381 284° West 354 407 25,400 1,380 Climbing New York Center
09:06PM 41.0956 -74.4658 282° West 359 413 26,800 1,200 Climbing New York Center
09:07PM 41.1203 -74.6022 284° West 359 413 27,900 1,140 Climbing New York Center
09:08PM 41.1533 -74.7336 289° West 374 430 29,200 1,320 Climbing New York Center
09:09PM 41.2056 -74.8525 300° West 374 430 30,600 1,320 Climbing New York Center
09:10PM 41.2556 -74.9742 299° West 379 436 31,900 1,200 Climbing New York Center
09:11PM 41.3056 -75.0906 300° West 374 430 33,100 1,080 Climbing New York Center
09:12PM 41.3575 -75.2044 301° West 369 425 34,100 1,020 Climbing New York Center
09:13PM 41.4053 -75.3181 299° West 364 419 35,200 900 Climbing New York Center
09:14PM 41.4528 -75.4322 299° West 364 419 35,900 360 Climbing New York Center
09:15PM 41.4939 -75.5514 295° West 364 419 36,000  Climbing New York Center
09:16PM 41.5250 -75.6561 292° West 359 413 36,000  Level New York Center
09:17PM 41.5689 -75.8061 291° West 369 425 36,000  Level New York Center
09:18PM 41.6050 -75.9336 291° West 374 430 36,000  Level New York Center
09:19PM 41.6428 -76.0672 291° West 374 430 36,000  Level New York Center
09:20PM 41.6806 -76.1978 291° West 374 430 36,000  Level New York Center
09:21PM 41.7164 -76.3258 291° West 374 430 36,000  Level New York Center
09:22PM 41.7500 -76.4539 289° West 374 430 36,000  Level New York Center
09:23PM 41.7817 -76.5706 290° West 374 430 36,000  Level New York Center
09:24PM 41.8172 -76.6933 291° West 374 430 36,000  Level New York Center
09:25PM 41.8525 -76.8244 290° West 369 425 36,000  Level New York Center
09:26PM 41.8928 -76.9733 290° West 370 426 36,000  Level Cleveland Center
09:27PM 41.9281 -77.0997 291° West 365 420 36,000  Level Cleveland Center
09:28PM 41.9631 -77.2264 290° West 365 420 36,000  Level Cleveland Center
09:29PM 41.9958 -77.3533 289° West 360 414 36,000  Level Cleveland Center
09:30PM 42.0286 -77.4772 290° West 360 414 36,000  Level Cleveland Center
09:31PM 42.0631 -77.6044 290° West 360 414 36,000  Level Cleveland Center
09:32PM 42.0956 -77.7317 289° West 360 414 36,000  Level Cleveland Center
09:33PM 42.1322 -77.8617 291° West 360 414 36,000  Level Cleveland Center
09:34PM 42.1642 -77.9864 289° West 360 414 36,000  Level Cleveland Center
09:35PM 42.1983 -78.1167 290° West 365 420 36,000 -120 Level Cleveland Center
09:36PM 42.2322 -78.2500 289° West 365 420 35,800 -540 Descending Cleveland Center
09:37PM 42.2661 -78.3778 290° West 365 420 35,000 -420 Descending Cleveland Center
09:38PM 42.2978 -78.5114 288° West 365 420 35,000  Level Cleveland Center
09:39PM 42.3314 -78.6425 289° West 365 420 35,000  Level Cleveland Center
09:40PM 42.3667 -78.7706 290° West 365 420 35,000 -240 Level Cleveland Center
09:41PM 42.3914 -78.8739 288° West 365 420 34,600 -540 Descending Cleveland Center
09:42PM 42.4331 -79.0331 290° West 365 420 34,000 -300 Descending Cleveland Center
09:43PM 42.4617 -79.1533 288° West 365 420 34,000  Level Cleveland Center
09:44PM 42.4925 -79.2850 288° West 365 420 34,000  Level Cleveland Center
09:45PM 42.5003 -79.4286 274° West 371 427 34,000  Level Cleveland Center
09:46PM 42.5078 -79.5722 274° West 377 434 34,000  Level Cleveland Center
09:47PM 42.5153 -79.7128 274° West 382 440 34,000  Level Cleveland Center
09:48PM 42.5225 -79.8592 274° West 382 440 34,000  Level Cleveland Center
09:49PM 42.5233 -80.0169 270° West 382 440 34,000  Level Cleveland Center
09:50PM 42.5303 -80.1550 274° West 382 440 34,000  Level Cleveland Center
09:51PM 42.5369 -80.3014 274° West 382 440 34,000  Level Cleveland Center
09:52PM 42.5436 -80.4311 274° West 382 440 34,000  Level Cleveland Center
09:53PM 42.5478 -80.5747 272° West 388 447 34,000  Level Cleveland Center
09:54PM 42.5539 -80.7156 273° West 383 441 34,000  Level Cleveland Center
09:55PM 42.5600 -80.8622 273° West 383 441 34,000  Level Cleveland Center
09:56PM 42.5658 -81.0033 273° West 383 441 34,000  Level Cleveland Center
09:57PM 42.5714 -81.1556 273° West 393 452 34,000  Level Cleveland Center
09:58PM 42.5747 -81.2964 272° West 388 447 34,000  Level Cleveland Center
09:59PM 42.5819 -81.4433 274° West 383 441 34,000  Level Cleveland Center
10:00PM 42.6078 -81.5986 283° West 383 441 34,000  Level Cleveland Center
10:01PM 42.6336 -81.7375 284° West 383 441 34,000  Level Cleveland Center
10:02PM 42.6553 -81.8619 283° West 383 441 34,000  Level Cleveland Center
10:03PM 42.6786 -82.0067 282° West 383 441 34,000  Level Cleveland Center
10:04PM 42.7039 -82.1483 284° West 388 447 34,000  Level Cleveland Center
10:05PM 42.7289 -82.2903 284° West 388 447 34,000  Level Cleveland Center
10:06PM 42.7517 -82.4322 282° West 388 447 34,000  Level Cleveland Center
10:07PM 42.7681 -82.5772 279° West 393 452 34,000  Level Cleveland Center
10:08PM 42.7800 -82.7244 276° West 393 452 34,000  Level Cleveland Center
10:09PM 42.7875 -82.8719 274° West 393 452 34,000  Level Cleveland Center
10:10PM 42.7969 -83.0194 275° West 393 452 34,000  Level Cleveland Center
10:11PM 42.8064 -83.1669 275° West 393 452 34,000  Level Cleveland Center
10:12PM 42.8153 -83.3175 275° West 393 452 34,000  Level Cleveland Center
10:13PM 42.8244 -83.4650 275° West 399 459 34,000  Level Cleveland Center
10:14PM 42.8328 -83.6183 274° West 399 459 34,000 -660 Level Cleveland Center
10:15PM 42.8414 -83.7689 275° West 405 466 32,700 -1,020 Descending Cleveland Center
10:16PM 42.8475 -83.9192 273° West 405 466 32,000 -240 Descending Cleveland Center
10:18PM 42.8675 -84.2283 275° West 406 467 32,000  Level Chicago Center
10:19PM 42.8756 -84.3831 274° West 410 472 32,000  Level Chicago Center
10:20PM 42.8836 -84.5364 274° West 408 470 32,000  Level Chicago Center
10:21PM 42.8742 -84.6906 265° West 412 474 32,000  Level Chicago Center
10:22PM 42.8569 -84.8439 261° West 410 472 32,000  Level Chicago Center
10:23PM 42.8408 -84.9989 262° West 412 474 32,000  Level Chicago Center
10:24PM 42.8239 -85.1531 262° West 412 474 32,000  Level Chicago Center
10:25PM 42.8081 -85.3075 262° West 412 474 32,000 -900 Level Chicago Center
10:26PM 42.7869 -85.4936 261° West 413 475 30,200 -1,860 Descending Chicago Center
10:27PM 42.7600 -85.6472 257° West 415 478 28,200 -1,920 Descending Chicago Center
10:28PM 42.7331 -85.7967 256° West 407 468 26,300 -1,860 Descending Chicago Center
10:29PM 42.7064 -85.9394 256° West 391 450 24,400 -1,860 Descending Chicago Center
10:30PM 42.6814 -86.0803 256° West 383 441 22,500 -1,860 Descending Chicago Center
10:32PM 42.6567 -86.2169 256° West 374 430 20,700 -1,800 Descending Chicago Center
10:33PM 42.6303 -86.3517 255° West 368 423 18,900 -1,620 Descending Chicago Center
10:34PM 42.6056 -86.4850 256° West 364 419 17,500 -1,560 Descending Chicago Center
10:35PM 42.5806 -86.6178 256° West 363 418 15,800 -1,620 Descending Chicago Center
10:36PM 42.5556 -86.7475 255° West 357 411 14,300 -1,500 Descending Chicago Center
10:37PM 42.5228 -86.8694 250° West 348 400 12,800 -1,620 Descending Chicago Center
10:38PM 42.4828 -87.0100 249° West 337 388 11,100 -1,380 Descending Chicago Center
10:39PM 42.4500 -87.1283 249° West 336 387 10,000 -600 Descending Chicago Center
10:40PM 42.4181 -87.2431 249° West 329 379 10,000  Level Chicago Center
10:41PM 42.3853 -87.3625 250° West 338 389 10,000  Level Chicago Center
10:42PM 42.3514 -87.4878 250° West 336 387 10,000  Level Chicago Center
10:43PM 42.2939 -87.5842 231° Southwest 344 396 10,000  Level Chicago Center
10:44PM 42.2200 -87.6619 218° Southwest 340 391 10,000 -240 Level Chicago Center
10:45PM 42.1506 -87.7347 218° Southwest 320 368 9,600 -960 Descending Chicago Center
10:46PM 42.0956 -87.8033 223° Southwest 279 321 8,100 -1,620 Descending Chicago Center
10:46PM 42.0833 -87.8500 251° West 272 313 7,500 -960 Descending Chicago TRACON
10:47PM 42.0667 -87.9167 251° West 269 310 7,100 -240 Descending Chicago TRACON
10:48PM 42.0500 -88.0000 255° West 252 290 7,100 -660 Level Chicago TRACON
10:49PM 42.0500 -88.1000 270° West 219 252 5,800 -1,200 Descending Chicago TRACON
10:50PM 42.0519 -88.1703 272° West 220 253 4,600 -900 Descending Chicago Center
10:51PM 42.0058 -88.1797 189° South 181 208 4,000 -600 Descending Chicago Center
10:52PM 41.9764 -88.1347 131° Southeast 189 217 3,500 -720 Descending Chicago Center
10:53PM 41.9667 -88.0667 101° East 173 199 2,600 -900 Descending Chicago TRACON
10:54PM 41.9667 -88.0167 90° East 139 160 1,900 -720 Descending Chicago TRACON
10:55PM 41.9667 -87.9667 90° East 125 144 1,300 -600 Descending Chicago TRACON